Time;durP1;ratioP1;P1;durP2;ratioP2;P2;SDS_P1;SDS_P2;PMS_P1;PMS_P2;Temp;Humidity;BMP_temperature;BMP_pressure;BME280_temperature;BME280_humidity;BME280_pressure;Samples;Min_cycle;Max_cycle;Signal;HPM_P1;HPM_P2
2022/11/20 00:00:18;;;;;;;7.87;4.20;;;;;;;-145.69;100.00;52664.22;5114676;28;20197;-78
2022/11/20 00:02:45;;;;;;;13.53;4.43;;;;;;;-145.69;100.00;52693.94;5114922;28;20732;-79
2022/11/20 00:05:11;;;;;;;7.53;4.20;;;;;;;-145.69;100.00;52660.25;5115298;28;20197;-79
2022/11/20 00:07:39;;;;;;;9.47;4.87;;;;;;;-145.69;100.00;52697.88;5114831;28;20555;-78
2022/11/20 00:10:06;;;;;;;6.80;4.70;;;;;;;-145.69;100.00;52682.03;5114738;28;20198;-78
2022/11/20 00:12:33;;;;;;;8.77;4.33;;;;;;;-145.69;100.00;52701.84;5115055;28;20223;-78
2022/11/20 00:15:00;;;;;;;11.07;4.37;;;;;;;-145.69;100.00;52644.41;5115180;28;20224;-79
2022/11/20 00:17:26;;;;;;;9.17;4.60;;;;;;;-145.69;100.00;52666.19;5114602;28;20198;-78
2022/11/20 00:19:53;;;;;;;7.47;4.30;;;;;;;-145.69;100.00;52682.03;5114859;28;20207;-78
2022/11/20 00:22:19;;;;;;;8.80;4.97;;;;;;;-145.69;100.00;52678.09;5114320;28;20726;-78
2022/11/20 00:24:47;;;;;;;12.87;4.80;;;;;;;-145.69;100.00;52697.88;5114542;28;20529;-78
2022/11/20 00:27:14;;;;;;;7.93;4.73;;;;;;;-145.69;100.00;52674.13;5114359;27;20732;-78
2022/11/20 00:29:40;;;;;;;7.80;4.40;;;;;;;-145.69;100.00;52678.09;5114969;28;20291;-78
2022/11/20 00:32:07;;;;;;;10.90;5.10;;;;;;;-145.69;100.00;52701.84;5114466;28;20193;-78
2022/11/20 00:34:33;;;;;;;9.93;5.37;;;;;;;-145.69;100.00;52687.97;5114563;28;20202;-78
2022/11/20 00:37:00;;;;;;;16.35;8.88;;;;;;;-145.69;100.00;52715.72;5113265;28;20438;-78
2022/11/20 00:39:27;;;;;;;11.40;5.97;;;;;;;-145.69;100.00;52713.72;5114849;28;20205;-78
2022/11/20 00:41:54;;;;;;;12.10;6.70;;;;;;;-145.69;100.00;52666.19;5114167;28;20578;-79
2022/11/20 00:44:21;;;;;;;14.77;6.00;;;;;;;-145.69;100.00;52682.03;5114487;28;20660;-78
2022/11/20 00:46:48;;;;;;;12.90;5.47;;;;;;;-145.69;100.00;52691.94;5114338;28;20303;-78
2022/11/20 00:49:14;;;;;;;11.80;5.47;;;;;;;-145.69;100.00;52682.03;5114379;28;20250;-78
2022/11/20 00:51:41;;;;;;;10.87;5.83;;;;;;;-145.69;100.00;52686.00;5114099;28;20678;-78
2022/11/20 00:54:08;;;;;;;14.47;6.20;;;;;;;-145.69;100.00;52666.19;5113979;28;20209;-79
2022/11/20 00:56:34;;;;;;;12.50;5.53;;;;;;;-145.69;100.00;52680.06;5114393;28;20197;-78
2022/11/20 00:59:14;;;;;;;19.63;7.03;;;;;;;-145.69;100.00;52731.56;5114202;28;20541;-78
2022/11/20 01:01:41;;;;;;;16.07;6.53;;;;;;;-145.69;100.00;52703.81;5107001;28;20683;-78
2022/11/20 01:04:07;;;;;;;13.63;7.40;;;;;;;-145.69;100.00;52674.13;5093399;28;20198;-78
2022/11/20 01:06:36;;;;;;;14.03;6.30;;;;;;;-145.69;100.00;52705.81;5111551;28;20285;-78
2022/11/20 01:09:05;;;;;;;13.50;6.70;;;;;;;-145.69;100.00;52697.88;5113559;28;20873;-78
2022/11/20 01:11:34;;;;;;;14.50;6.77;;;;;;;-145.69;100.00;52674.13;5100135;28;20300;-78
2022/11/20 01:14:04;;;;;;;15.27;6.37;;;;;;;-145.69;100.00;52693.94;5103782;28;20189;-78
2022/11/20 01:16:34;;;;;;;10.83;6.00;;;;;;;-145.69;100.00;52684.03;5113842;28;20193;-78
2022/11/20 01:19:03;;;;;;;15.47;6.33;;;;;;;-145.69;100.00;52691.94;5114200;28;20202;-78
2022/11/20 01:21:32;;;;;;;17.03;6.00;;;;;;;-145.69;100.00;52660.25;5109199;28;20231;-78
2022/11/20 01:23:59;;;;;;;13.00;6.23;;;;;;;-145.69;100.00;52670.16;5113596;28;20200;-79
2022/11/20 01:26:27;;;;;;;13.83;5.63;;;;;;;-145.69;100.00;52697.88;5113797;28;20232;-78
2022/11/20 01:28:54;;;;;;;11.83;5.83;;;;;;;-145.69;100.00;52668.19;5113358;28;20564;-78
2022/11/20 01:31:25;;;;;;;10.07;4.50;;;;;;;-145.69;100.00;52678.09;5113733;28;20193;-78
2022/11/20 01:33:53;;;;;;;12.17;5.27;;;;;;;-145.69;100.00;52713.72;5113527;28;20198;-78
2022/11/20 01:36:22;;;;;;;9.13;5.00;;;;;;;-145.69;100.00;52721.66;5113485;28;20241;-78
2022/11/20 01:38:49;;;;;;;11.60;5.43;;;;;;;-145.69;100.00;52695.91;5113247;28;20201;-77
2022/11/20 01:43:20;;;;;;;13.77;6.10;;;;;;;-145.69;100.00;52670.16;5113120;28;20199;-78
2022/11/20 01:44:03;;;;;;;11.73;5.93;;;;;;;-145.69;100.00;52691.94;5112978;28;20595;-78
2022/11/20 01:46:32;;;;;;;8.87;4.97;;;;;;;-145.69;100.00;52646.41;5113389;28;20193;-78
2022/11/20 01:49:02;;;;;;;15.80;6.03;;;;;;;-145.69;100.00;52713.72;5112829;28;20204;-78
2022/11/20 01:51:32;;;;;;;7.97;4.47;;;;;;;-145.69;100.00;52672.13;5113456;28;20205;-78
2022/11/20 01:54:01;;;;;;;10.67;4.70;;;;;;;-145.69;100.00;52666.19;5112981;28;20204;-78
2022/11/20 01:56:30;;;;;;;9.40;4.27;;;;;;;-145.69;100.00;52674.13;5112804;28;20200;-78
2022/11/20 01:59:01;;;;;;;8.63;5.30;;;;;;;-145.69;100.00;52664.22;5112231;28;20485;-78
2022/11/20 02:01:28;;;;;;;9.03;3.90;;;;;;;-145.69;100.00;52693.94;5113273;28;20200;-78
2022/11/20 02:03:58;;;;;;;7.13;3.50;;;;;;;-145.69;100.00;52680.06;5113048;28;20190;-78
2022/11/20 02:06:27;;;;;;;5.43;2.70;;;;;;;-145.69;100.00;52674.13;5112929;28;20205;-78
2022/11/20 02:08:55;;;;;;;6.13;2.63;;;;;;;-145.69;100.00;52691.94;5113072;28;20252;-77
2022/11/20 02:11:22;;;;;;;6.67;3.50;;;;;;;-145.69;100.00;52676.09;5112658;28;20201;-78
2022/11/20 02:13:48;;;;;;;5.63;2.67;;;;;;;-145.69;100.00;52713.72;5113111;28;20560;-78
2022/11/20 02:16:20;;;;;;;5.83;2.90;;;;;;;-145.69;100.00;52697.88;5113109;28;20246;-78
2022/11/20 02:18:48;;;;;;;9.30;2.80;;;;;;;-145.69;100.00;52693.94;5112759;28;20216;-78
2022/11/20 02:21:25;;;;;;;4.90;2.50;;;;;;;-145.69;100.00;52697.88;5112679;28;20208;-78
2022/11/20 02:24:05;;;;;;;2.67;1.70;;;;;;;-145.69;100.00;52670.16;5112696;28;20333;-79
2022/11/20 02:26:35;;;;;;;3.67;2.23;;;;;;;-145.69;100.00;52682.03;5113165;28;20201;-78
2022/11/20 02:29:03;;;;;;;3.43;1.67;;;;;;;-145.69;100.00;52660.25;5112900;28;20241;-78
2022/11/20 02:31:35;;;;;;;2.07;1.70;;;;;;;-145.69;100.00;52703.81;5112408;28;20660;-79
2022/11/20 02:34:01;;;;;;;1.47;1.33;;;;;;;-145.69;100.00;52686.00;5112991;28;20605;-78
2022/11/20 02:36:31;;;;;;;3.37;1.90;;;;;;;-145.69;100.00;52691.94;5112238;28;20238;-78
2022/11/20 02:38:58;;;;;;;3.95;1.88;;;;;;;-145.69;100.00;52689.97;5112527;28;20443;-78
2022/11/20 02:41:33;;;;;;;2.20;1.30;;;;;;;-145.69;100.00;52680.06;5112495;28;20658;-78
2022/11/20 02:44:00;;;;;;;2.30;1.50;;;;;;;-145.69;100.00;52686.00;5112459;28;20197;-78
2022/11/20 02:46:26;;;;;;;1.77;1.33;;;;;;;-145.69;100.00;52666.19;5113774;28;20194;-78
2022/11/20 02:48:53;;;;;;;2.80;1.20;;;;;;;-145.69;100.00;52646.41;5117003;28;20220;-78
2022/11/20 02:51:20;;;;;;;1.70;1.10;;;;;;;-145.69;100.00;52658.28;5116141;28;20575;-78
2022/11/20 02:53:47;;;;;;;1.20;1.10;;;;;;;-145.69;100.00;52680.06;5116617;28;20201;-78
2022/11/20 02:56:14;;;;;;;1.73;1.30;;;;;;;-145.69;100.00;52666.19;5116497;28;20202;-77
2022/11/20 02:58:42;;;;;;;1.83;1.10;;;;;;;-145.69;100.00;52642.44;5116180;28;20197;-78
2022/11/20 03:01:08;;;;;;;1.63;1.10;;;;;;;-145.69;100.00;52668.19;5116317;28;20201;-78
2022/11/20 03:03:35;;;;;;;3.60;1.50;;;;;;;-145.69;100.00;52684.03;5116376;28;20229;-78
2022/11/20 03:06:01;;;;;;;1.87;1.43;;;;;;;-145.69;100.00;52666.19;5116430;28;20717;-78
2022/11/20 03:08:28;;;;;;;3.57;1.50;;;;;;;-145.69;100.00;52646.41;5115871;28;20201;-78
2022/11/20 03:10:54;;;;;;;1.80;1.30;;;;;;;-145.69;100.00;52672.13;5116176;28;20305;-78
2022/11/20 03:13:21;;;;;;;2.60;1.63;;;;;;;-145.69;100.00;52638.47;5116338;28;20220;-78
2022/11/20 03:15:49;;;;;;;1.33;1.23;;;;;;;-145.69;100.00;52668.19;5116583;28;20280;-78
2022/11/20 03:18:15;;;;;;;1.93;1.17;;;;;;;-145.69;100.00;52687.97;5113499;28;20695;-78
2022/11/20 03:20:42;;;;;;;2.10;1.37;;;;;;;-145.69;100.00;52662.22;5096127;28;20202;-77
2022/11/20 03:23:08;;;;;;;2.67;1.50;;;;;;;-145.69;100.00;52678.09;5111183;28;20224;-78
2022/11/20 03:25:35;;;;;;;2.03;1.50;;;;;;;-145.69;100.00;52682.03;5116240;28;20209;-78
2022/11/20 03:28:01;;;;;;;1.87;1.50;;;;;;;-145.69;100.00;52654.31;5115587;28;20197;-78
2022/11/20 03:30:28;;;;;;;2.37;1.40;;;;;;;-145.69;100.00;52664.22;5115669;28;20197;-78
2022/11/20 03:32:56;;;;;;;2.13;1.50;;;;;;;-145.69;100.00;52701.84;5115413;28;20198;-78
2022/11/20 03:35:22;;;;;;;1.67;1.53;;;;;;;-145.69;100.00;52693.94;5115539;28;20552;-78
2022/11/20 03:37:49;;;;;;;1.83;1.40;;;;;;;-145.69;100.00;52668.19;5115828;28;20555;-78
2022/11/20 03:40:15;;;;;;;2.93;1.73;;;;;;;-145.69;100.00;52666.19;5115758;28;20303;-78
2022/11/20 03:42:48;;;;;;;2.17;1.40;;;;;;;-145.69;100.00;52666.19;5115690;28;20553;-78
2022/11/20 03:45:15;;;;;;;1.37;1.27;;;;;;;-145.69;100.00;52693.94;5115902;27;20221;-78
2022/11/20 03:47:42;;;;;;;4.73;1.60;;;;;;;-145.69;100.00;52709.78;5115532;28;20204;-78
2022/11/20 03:50:12;;;;;;;1.70;1.17;;;;;;;-145.69;100.00;52693.94;5115416;28;20208;-78
2022/11/20 03:52:39;;;;;;;8.60;1.63;;;;;;;-145.69;100.00;52682.03;5114910;28;20201;-78
2022/11/20 03:55:06;;;;;;;2.23;1.20;;;;;;;-145.69;100.00;52707.78;5115125;28;20244;-78
2022/11/20 03:57:32;;;;;;;1.27;1.17;;;;;;;-145.69;100.00;52721.66;5114922;28;20661;-78
2022/11/20 03:59:59;;;;;;;1.20;1.10;;;;;;;-145.69;100.00;52701.84;5115221;28;20197;-78
2022/11/20 04:02:25;;;;;;;3.23;1.43;;;;;;;-145.69;100.00;52721.66;5114753;28;20217;-78
2022/11/20 04:04:52;;;;;;;2.77;1.40;;;;;;;-145.69;100.00;52713.72;5115260;28;20193;-78
2022/11/20 04:07:20;;;;;;;1.77;1.63;;;;;;;-145.69;100.00;52707.78;5115071;28;20210;-78
2022/11/20 04:09:46;;;;;;;4.60;1.67;;;;;;;-145.69;100.00;52686.00;5115548;28;20204;-78
2022/11/20 04:12:13;;;;;;;1.70;1.50;;;;;;;-145.69;100.00;52693.94;5114356;28;20671;-78
2022/11/20 04:14:39;;;;;;;2.33;1.40;;;;;;;-145.69;100.00;52697.88;5115237;28;20204;-78
2022/11/20 04:17:06;;;;;;;1.60;1.40;;;;;;;-145.69;100.00;52719.66;5114941;28;20644;-78
2022/11/20 04:19:32;;;;;;;3.00;1.20;;;;;;;-145.69;100.00;52693.94;5114808;28;20809;-78
2022/11/20 04:21:59;;;;;;;3.30;1.80;;;;;;;-145.69;100.00;52705.81;5113987;28;20222;-78
2022/11/20 04:24:27;;;;;;;2.00;1.60;;;;;;;-145.69;100.00;52682.03;5114954;28;20830;-78
2022/11/20 04:26:54;;;;;;;1.40;1.30;;;;;;;-145.69;100.00;52729.56;5114962;28;20288;-78
2022/11/20 04:29:20;;;;;;;3.40;1.33;;;;;;;-145.69;100.00;52697.88;5114249;28;20731;-78
2022/11/20 04:31:47;;;;;;;2.13;1.30;;;;;;;-145.69;100.00;52703.81;5114872;28;20201;-78
2022/11/20 04:34:13;;;;;;;4.63;1.53;;;;;;;-145.69;100.00;52713.72;5114696;28;20209;-78
2022/11/20 04:36:40;;;;;;;3.67;1.53;;;;;;;-145.69;100.00;52707.78;5114392;28;20320;-78
2022/11/20 04:39:07;;;;;;;2.17;1.43;;;;;;;-145.69;100.00;52719.66;5114266;28;20300;-78
2022/11/20 04:41:36;;;;;;;3.37;1.73;;;;;;;-145.69;100.00;52703.81;5094505;28;20203;-78
2022/11/20 04:44:05;;;;;;;2.73;1.73;;;;;;;-145.69;100.00;52676.09;5094021;28;20692;-78
2022/11/20 04:46:33;;;;;;;2.87;1.77;;;;;;;-145.69;100.00;52709.78;5094001;28;20198;-78
2022/11/20 04:49:00;;;;;;;3.08;2.00;;;;;;;-145.69;100.00;52689.97;5092795;28;20934;-77
2022/11/20 04:51:27;;;;;;;2.80;1.83;;;;;;;-145.69;100.00;52695.91;5113687;28;20259;-77
2022/11/20 04:53:54;;;;;;;3.10;2.07;;;;;;;-145.69;100.00;52697.88;5113802;28;20192;-77
2022/11/20 04:56:21;;;;;;;1.60;1.50;;;;;;;-145.69;100.00;52693.94;5113938;28;20197;-77
2022/11/20 04:58:49;;;;;;;2.63;1.80;;;;;;;-145.69;100.00;52729.56;5113983;28;20198;-77
2022/11/20 05:01:17;;;;;;;3.03;1.80;;;;;;;-145.69;100.00;52705.81;5114207;28;20549;-78
2022/11/20 05:03:45;;;;;;;2.93;1.60;;;;;;;-145.69;100.00;52664.22;5113967;28;20689;-78
2022/11/20 05:06:13;;;;;;;2.30;1.37;;;;;;;-145.69;100.00;52717.69;5113772;28;20209;-78
2022/11/20 05:08:41;;;;;;;2.30;1.43;;;;;;;-145.69;100.00;52701.84;5114038;28;20197;-78
2022/11/20 05:11:10;;;;;;;4.17;1.60;;;;;;;-145.69;100.00;52687.97;5113974;28;20208;-78
2022/11/20 05:13:37;;;;;;;3.80;1.20;;;;;;;-145.69;100.00;52693.94;5113694;28;20204;-78
2022/11/20 05:16:07;;;;;;;1.53;1.30;;;;;;;-145.69;100.00;52666.19;5113114;28;20667;-78
2022/11/20 05:18:34;;;;;;;5.20;1.60;;;;;;;-145.69;100.00;52695.91;5113769;28;20198;-78
2022/11/20 05:21:01;;;;;;;2.63;1.53;;;;;;;-145.69;100.00;52703.81;5113608;28;20189;-78
2022/11/20 05:23:29;;;;;;;5.03;1.70;;;;;;;-145.69;100.00;52686.00;5113214;28;20683;-78
2022/11/20 05:25:57;;;;;;;3.03;1.33;;;;;;;-145.69;100.00;52684.03;5113335;28;20201;-78
2022/11/20 05:28:25;;;;;;;2.47;1.37;;;;;;;-145.69;100.00;52662.22;5107251;28;20201;-78
2022/11/20 05:30:52;;;;;;;4.23;1.60;;;;;;;-145.69;100.00;52701.84;5095149;28;20656;-78
2022/11/20 05:33:20;;;;;;;5.80;1.30;;;;;;;-145.69;100.00;52693.94;5113710;28;20278;-78
2022/11/20 05:35:47;;;;;;;2.00;1.50;;;;;;;-145.69;100.00;52674.13;5113628;28;20229;-78
2022/11/20 05:38:14;;;;;;;5.20;1.90;;;;;;;-145.69;100.00;52672.13;5113730;28;20293;-78
2022/11/20 05:40:41;;;;;;;2.93;1.70;;;;;;;-145.69;100.00;52693.94;5113073;28;20207;-78
2022/11/20 05:43:07;;;;;;;2.83;1.60;;;;;;;-145.69;100.00;52711.75;5112664;28;20213;-78
2022/11/20 05:45:34;;;;;;;1.83;1.30;;;;;;;-145.69;100.00;52705.81;5113359;28;20201;-78
2022/11/20 05:48:01;;;;;;;5.60;2.00;;;;;;;-145.69;100.00;52684.03;5113457;28;20197;-78
2022/11/20 05:50:29;;;;;;;1.67;1.50;;;;;;;-145.69;100.00;52654.31;5113102;28;20233;-78
2022/11/20 05:52:58;;;;;;;1.83;1.23;;;;;;;-145.69;100.00;52686.00;5112948;28;20559;-78
2022/11/20 05:55:25;;;;;;;2.77;1.70;;;;;;;-145.69;100.00;52676.09;5112999;28;20189;-78
2022/11/20 05:57:53;;;;;;;3.43;1.83;;;;;;;-145.69;100.00;52684.03;5113106;28;20197;-78
2022/11/20 06:00:19;;;;;;;3.47;2.10;;;;;;;-145.69;100.00;52701.84;5112838;28;20206;-78
2022/11/20 06:02:46;;;;;;;4.47;2.00;;;;;;;-145.69;100.00;52680.06;5113073;28;20204;-78
2022/11/20 06:05:12;;;;;;;3.00;1.87;;;;;;;-145.69;100.00;52693.94;5113199;28;20738;-78
2022/11/20 06:07:40;;;;;;;3.30;1.50;;;;;;;-145.69;100.00;52680.06;5112976;28;20197;-79
2022/11/20 06:10:07;;;;;;;2.50;1.50;;;;;;;-145.69;100.00;52693.94;5112724;28;20301;-79
2022/11/20 06:12:34;;;;;;;4.97;1.90;;;;;;;-145.69;100.00;52668.19;5112819;28;20194;-78
2022/11/20 06:15:00;;;;;;;2.40;1.60;;;;;;;-145.69;100.00;52670.16;5113309;28;20559;-79
2022/11/20 06:17:27;;;;;;;1.83;1.53;;;;;;;-145.69;100.00;52721.66;5112470;28;20685;-79
2022/11/20 06:19:54;;;;;;;4.20;1.70;;;;;;;-145.69;100.00;52682.03;5112916;28;20196;-78
2022/11/20 06:22:20;;;;;;;3.03;1.83;;;;;;;-145.69;100.00;52662.22;5115249;28;20553;-79
2022/11/20 06:24:48;;;;;;;3.47;2.07;;;;;;;-145.69;100.00;52670.16;5117081;28;20721;-78
2022/11/20 06:27:15;;;;;;;3.57;1.93;;;;;;;-145.69;100.00;52705.81;5116845;28;20201;-79
2022/11/20 06:29:41;;;;;;;2.07;1.53;;;;;;;-145.69;100.00;52684.03;5117165;27;20200;-79
2022/11/20 06:32:08;;;;;;;5.27;2.63;;;;;;;-145.69;100.00;52658.28;5117565;28;20227;-79
2022/11/20 06:34:35;;;;;;;4.67;1.90;;;;;;;-145.69;100.00;52695.91;5117382;28;20295;-78
2022/11/20 06:37:01;;;;;;;2.43;1.70;;;;;;;-145.69;100.00;52684.03;5117081;28;20229;-78
2022/11/20 06:39:28;;;;;;;4.10;2.00;;;;;;;-145.69;100.00;52664.22;5117511;28;20193;-79
2022/11/20 06:41:56;;;;;;;2.03;1.70;;;;;;;-145.69;100.00;52693.94;5117445;28;20197;-79
2022/11/20 06:44:22;;;;;;;4.00;1.57;;;;;;;-145.69;100.00;52666.19;5116380;28;20770;-79
2022/11/20 06:46:49;;;;;;;2.80;1.90;;;;;;;-145.69;100.00;52693.94;5116428;28;20193;-78
2022/11/20 06:49:15;;;;;;;3.20;1.73;;;;;;;-145.69;100.00;52652.34;5116692;28;20678;-78
2022/11/20 06:51:42;;;;;;;4.97;1.60;;;;;;;-145.69;100.00;52660.25;5116717;28;20225;-78
2022/11/20 06:54:08;;;;;;;3.10;1.77;;;;;;;-145.69;100.00;52684.03;5115940;28;20208;-78
2022/11/20 06:56:35;;;;;;;3.20;2.07;;;;;;;-145.69;100.00;52678.09;5116175;28;20262;-77
2022/11/20 06:59:06;;;;;;;4.47;1.93;;;;;;;-145.69;100.00;52654.31;5116474;28;20649;-78
2022/11/20 07:01:32;;;;;;;4.03;1.60;;;;;;;-145.69;100.00;52644.41;5116204;28;20764;-77
2022/11/20 07:03:59;;;;;;;3.40;1.60;;;;;;;-145.69;100.00;52713.72;5116696;28;20594;-78
2022/11/20 07:06:25;;;;;;;2.10;1.40;;;;;;;-145.69;100.00;52686.00;5116267;28;20202;-78
2022/11/20 07:08:53;;;;;;;4.43;2.00;;;;;;;-145.69;100.00;52642.44;5116450;28;20201;-78
2022/11/20 07:11:19;;;;;;;2.93;1.80;;;;;;;-145.69;100.00;52674.13;5115964;28;20201;-78
2022/11/20 07:13:46;;;;;;;4.00;1.93;;;;;;;-145.69;100.00;52662.22;5116240;28;20215;-77
2022/11/20 07:16:14;;;;;;;6.40;2.00;;;;;;;-145.69;100.00;52668.19;5116231;28;20204;-78
2022/11/20 07:18:40;;;;;;;1.80;1.57;;;;;;;-145.69;100.00;52678.09;5116211;28;20208;-77
2022/11/20 07:21:09;;;;;;;3.43;1.50;;;;;;;-145.69;100.00;52664.22;5115340;28;20193;-78
2022/11/20 07:23:35;;;;;;;3.10;1.50;;;;;;;-145.69;100.00;52703.81;5116351;28;20230;-78
2022/11/20 07:26:04;;;;;;;3.33;1.93;;;;;;;-145.69;100.00;52705.81;5116543;28;20293;-78
2022/11/20 07:28:34;;;;;;;9.73;4.67;;;;;;;-145.69;100.00;52682.03;5117059;28;20197;-79
2022/11/20 07:31:00;;;;;;;16.57;6.40;;;;;;;-145.69;100.00;52678.09;5115972;28;20201;-78
2022/11/20 07:33:28;;;;;;;3.10;2.37;;;;;;;-145.69;100.00;52682.03;5115417;28;20212;-78
2022/11/20 07:35:55;;;;;;;8.97;3.90;;;;;;;-145.69;100.00;52680.06;5099939;28;20565;-79
2022/11/20 07:38:22;;;;;;;10.80;5.43;;;;;;;-145.69;100.00;52689.97;5095447;28;20243;-78
2022/11/20 07:40:48;;;;;;;6.90;3.33;;;;;;;-145.69;100.00;52670.16;5095512;28;20209;-78
2022/11/20 07:43:15;;;;;;;5.47;2.27;;;;;;;-145.69;100.00;52693.94;5110105;28;20712;-78
2022/11/20 07:45:44;;;;;;;2.83;1.80;;;;;;;-145.69;100.00;52678.09;5115759;28;20690;-78
2022/11/20 07:48:14;;;;;;;5.10;2.80;;;;;;;-145.69;100.00;52674.13;5115253;28;20197;-78
2022/11/20 07:50:41;;;;;;;4.50;2.77;;;;;;;-145.69;100.00;52693.94;5115300;28;20201;-79
2022/11/20 07:53:08;;;;;;;7.17;4.17;;;;;;;-145.69;100.00;52678.09;5115192;28;20258;-78
2022/11/20 07:55:35;;;;;;;4.00;2.40;;;;;;;-145.69;100.00;52678.09;5115648;28;20288;-79
2022/11/20 07:58:01;;;;;;;4.77;2.10;;;;;;;-145.69;100.00;52646.41;5115509;28;20197;-78
2022/11/20 08:00:28;;;;;;;3.20;2.03;;;;;;;-145.69;100.00;52699.88;5115691;28;20197;-79
2022/11/20 08:02:54;;;;;;;2.30;1.57;;;;;;;-145.69;100.00;52662.22;5114677;28;20560;-78
2022/11/20 08:05:21;;;;;;;2.70;1.90;;;;;;;-145.69;100.00;52670.16;5113986;28;20304;-78
2022/11/20 08:07:49;;;;;;;1.37;1.27;;;;;;;-145.69;100.00;52678.09;5114189;28;20208;-79
2022/11/20 08:10:17;;;;;;;1.50;1.40;;;;;;;-145.69;100.00;52666.19;5116477;28;20199;-82
2022/11/20 08:15:32;;;;;;;1.50;1.40;;;;;;;-145.69;100.00;52684.03;5119951;28;20209;-79
2022/11/20 08:18:02;;;;;;;1.60;1.50;;;;;;;-145.69;100.00;52666.19;5116198;28;20204;-79
2022/11/20 08:20:30;;;;;;;4.10;1.70;;;;;;;-145.69;100.00;52678.09;5115269;28;20599;-79
2022/11/20 08:23:02;;;;;;;1.57;1.20;;;;;;;-145.69;100.00;52666.19;5114931;28;20204;-80
2022/11/20 08:25:29;;;;;;;1.40;1.23;;;;;;;-145.69;100.00;52650.34;5115084;28;20282;-79
2022/11/20 08:27:58;;;;;;;1.97;1.20;;;;;;;-145.69;100.00;52658.28;5115197;28;20235;-78
2022/11/20 08:30:25;;;;;;;1.50;1.20;;;;;;;-145.69;100.00;52636.50;5115008;28;20552;-78
2022/11/20 08:32:51;;;;;;;1.40;0.80;;;;;;;-145.69;100.00;52674.13;5113829;28;20656;-78
2022/11/20 08:35:18;;;;;;;0.90;0.90;;;;;;;-145.69;100.00;52658.28;5115742;28;20277;-79
2022/11/20 08:37:47;;;;;;;3.90;2.00;;;;;;;-145.69;100.00;52646.41;5115701;28;20219;-79
2022/11/20 08:40:16;;;;;;;2.37;0.80;;;;;;;-145.69;100.00;52682.03;5114711;28;20305;-78
2022/11/20 08:42:47;;;;;;;1.93;1.33;;;;;;;-145.69;100.00;52624.59;5114439;28;20280;-78
2022/11/20 08:45:14;;;;;;;0.77;0.77;;;;;;;-145.69;100.00;52656.28;5114176;28;20225;-78
2022/11/20 08:47:41;;;;;;;1.10;0.80;;;;;;;-145.69;100.00;52654.31;5114566;28;20707;-78
2022/11/20 08:50:09;;;;;;;1.00;0.90;;;;;;;-145.69;100.00;52642.44;5114667;28;20210;-78
2022/11/20 08:52:35;;;;;;;1.30;1.07;;;;;;;-145.69;100.00;52634.50;5113118;28;20323;-77
2022/11/20 08:55:02;;;;;;;1.37;1.00;;;;;;;-145.69;100.00;52650.34;5114280;28;20205;-78
2022/11/20 08:57:32;;;;;;;1.73;1.20;;;;;;;-145.69;100.00;52646.41;5112373;28;20193;-78
2022/11/20 08:59:58;;;;;;;3.00;1.30;;;;;;;-145.69;100.00;52652.34;5112251;28;20204;-78
2022/11/20 09:02:25;;;;;;;2.83;1.60;;;;;;;-145.69;100.00;52644.41;5112351;28;20204;-78
2022/11/20 09:04:53;;;;;;;1.47;0.90;;;;;;;-145.69;100.00;52642.44;5112144;28;20735;-78
2022/11/20 09:07:19;;;;;;;2.80;1.20;;;;;;;-145.69;100.00;52630.53;5112145;28;20261;-78
2022/11/20 09:09:46;;;;;;;1.87;1.30;;;;;;;-145.69;100.00;52658.28;5112659;28;20204;-78
2022/11/20 09:12:14;;;;;;;2.43;1.30;;;;;;;-145.69;100.00;52689.97;5113815;28;20209;-79
2022/11/20 09:14:42;;;;;;;1.43;1.10;;;;;;;-145.69;100.00;52670.16;5114186;28;20730;-78
2022/11/20 09:17:13;;;;;;;1.53;1.00;;;;;;;-145.69;100.00;52630.53;5114250;28;20210;-78
2022/11/20 09:19:40;;;;;;;1.77;1.20;;;;;;;-145.69;100.00;52658.28;5114157;28;20200;-77
2022/11/20 09:22:06;;;;;;;2.00;1.57;;;;;;;-145.69;100.00;52652.34;5114059;28;20205;-78
2022/11/20 09:24:33;;;;;;;2.40;1.63;;;;;;;-145.69;100.00;52670.16;5113955;28;20235;-78
2022/11/20 09:27:02;;;;;;;0.80;0.77;;;;;;;-145.69;100.00;52646.41;5114047;28;20208;-78
2022/11/20 09:29:31;;;;;;;1.17;0.93;;;;;;;-145.69;100.00;52662.22;5113920;28;20651;-78
2022/11/20 09:31:59;;;;;;;2.50;1.40;;;;;;;-145.69;100.00;52676.09;5114016;28;20732;-78
2022/11/20 09:34:25;;;;;;;0.60;0.60;;;;;;;-145.69;100.00;52612.72;5113282;28;20197;-78
2022/11/20 09:36:52;;;;;;;1.03;0.90;;;;;;;-145.69;100.00;52658.28;5113677;28;20231;-78
2022/11/20 09:39:18;;;;;;;1.33;0.90;;;;;;;-145.69;100.00;52666.19;5113899;28;20208;-79
2022/11/20 09:42:00;;;;;;;3.73;2.60;;;;;;;-145.69;100.00;52648.38;5112045;28;20201;-78
2022/11/20 09:44:41;;;;;;;1.07;0.80;;;;;;;-145.69;100.00;52664.22;5092954;28;20770;-77
2022/11/20 09:47:21;;;;;;;1.10;1.00;;;;;;;-145.69;100.00;52632.53;5093260;28;20284;-78
2022/11/20 09:50:03;;;;;;;2.00;1.00;;;;;;;-145.69;100.00;52654.31;5093485;28;20289;-78
2022/11/20 09:52:38;;;;;;;5.63;3.13;;;;;;;-145.69;100.00;52662.22;5093159;28;20206;-78
2022/11/20 09:55:10;;;;;;;4.80;2.60;;;;;;;-145.69;100.00;52646.41;5092902;28;20645;-78
2022/11/20 09:57:39;;;;;;;2.37;1.60;;;;;;;-145.69;100.00;52648.38;5092390;28;20603;-78
2022/11/20 10:00:10;;;;;;;2.17;1.37;;;;;;;-145.69;100.00;52646.41;5095086;28;20202;-78
2022/11/20 10:02:45;;;;;;;1.90;1.40;;;;;;;-145.69;100.00;52676.09;5113343;28;20201;-78
2022/11/20 10:05:18;;;;;;;3.00;1.30;;;;;;;-145.69;100.00;52632.53;5113704;28;20679;-78
2022/11/20 10:07:54;;;;;;;1.40;1.30;;;;;;;-145.69;100.00;52660.25;5113131;28;20193;-78
2022/11/20 10:10:30;;;;;;;0.60;0.60;;;;;;;-145.69;100.00;52678.09;5113348;28;20284;-78
2022/11/20 10:13:10;;;;;;;1.33;0.80;;;;;;;-145.69;100.00;52674.13;5113499;28;20201;-78
2022/11/20 10:15:47;;;;;;;2.73;1.00;;;;;;;-145.69;100.00;52628.56;5113492;28;20252;-78
2022/11/20 10:18:32;;;;;;;0.95;0.80;;;;;;;-145.69;100.00;52628.56;5113034;28;20522;-78
2022/11/20 10:21:09;;;;;;;1.00;0.90;;;;;;;-145.69;100.00;52644.41;5113076;28;20215;-78
2022/11/20 10:24:10;;;;;;;1.27;0.87;;;;;;;-145.69;100.00;52626.59;5113411;28;20205;-77
2022/11/20 10:26:44;;;;;;;1.93;1.20;;;;;;;-145.69;100.00;52626.59;5113361;28;20197;-79
2022/11/20 10:29:13;;;;;;;1.10;0.77;;;;;;;-145.69;100.00;52646.41;5114728;28;20225;-78
2022/11/20 10:31:42;;;;;;;1.30;1.07;;;;;;;-145.69;100.00;52654.31;5113247;28;20204;-78
2022/11/20 10:34:22;;;;;;;3.03;0.90;;;;;;;-145.69;100.00;52680.06;5112763;28;20201;-78
2022/11/20 10:36:55;;;;;;;0.80;0.80;;;;;;;-145.69;100.00;52668.19;5112946;28;20703;-78
2022/11/20 10:39:31;;;;;;;0.87;0.70;;;;;;;-145.69;100.00;52658.28;5113341;28;20211;-78
2022/11/20 10:41:57;;;;;;;1.37;0.83;;;;;;;-145.69;100.00;52660.25;5112826;28;20201;-78
2022/11/20 10:47:17;;;;;;;2.10;0.90;;;;;;;-145.69;100.00;52684.03;5113121;28;20239;-78
2022/11/20 10:49:47;;;;;;;1.33;0.90;;;;;;;-145.69;100.00;52646.41;5113282;28;20208;-78
2022/11/20 10:52:22;;;;;;;3.37;0.90;;;;;;;-145.69;100.00;52636.50;5114570;28;20201;-77
2022/11/20 10:54:55;;;;;;;1.50;1.10;;;;;;;-145.69;100.00;52662.22;5113715;28;20261;-77
2022/11/20 10:57:37;;;;;;;0.70;0.70;;;;;;;-145.69;100.00;52626.59;5112763;28;20200;-78
2022/11/20 11:00:07;;;;;;;1.20;1.10;;;;;;;-145.69;100.00;52648.38;5112379;28;20201;-78
2022/11/20 11:02:40;;;;;;;0.97;0.90;;;;;;;-145.69;100.00;52674.13;5113975;28;20196;-80
2022/11/20 11:05:17;;;;;;;3.03;0.97;;;;;;;-145.69;100.00;52670.16;5111746;28;20447;-77
2022/11/20 11:07:46;;;;;;;1.40;1.20;;;;;;;-145.69;100.00;52640.44;5114167;28;20655;-75
2022/11/20 11:10:27;;;;;;;1.20;1.10;;;;;;;-145.69;100.00;52654.31;5113954;28;20671;-75
2022/11/20 11:12:54;;;;;;;1.63;1.40;;;;;;;-145.69;100.00;52674.13;5096373;28;20198;-75
2022/11/20 11:15:29;;;;;;;1.30;1.20;;;;;;;-145.69;100.00;52660.25;5096330;28;20202;-75
2022/11/20 11:17:56;;;;;;;1.90;1.50;;;;;;;-145.69;100.00;52650.34;5096072;28;20197;-75
2022/11/20 11:20:25;;;;;;;2.70;1.30;;;;;;;-145.69;100.00;52634.50;5095982;28;20194;-76